Time;durP1;ratioP1;P1;durP2;ratioP2;P2;SDS_P1;SDS_P2;PMS_P1;PMS_P2;Temp;Humidity;BMP_temperature;BMP_pressure;BME280_temperature;BME280_humidity;BME280_pressure;Samples;Min_cycle;Max_cycle;Signal;HPM_P1;HPM_P2
2021/12/18 00:01:02;;;;;;;9.88;2.42;;;6.60;99.90;;;;;;6212529;23;20302;-76
2021/12/18 00:03:28;;;;;;;8.35;2.15;;;6.60;99.90;;;;;;6185978;23;20020;-76
2021/12/18 00:05:53;;;;;;;8.15;3.05;;;6.60;99.90;;;;;;6211409;23;20732;-76
2021/12/18 00:08:19;;;;;;;15.10;3.42;;;6.60;99.90;;;;;;6185551;23;20100;-76
2021/12/18 00:10:45;;;;;;;12.43;3.03;;;6.60;99.90;;;;;;6211629;23;20083;-76
2021/12/18 00:13:12;;;;;;;10.40;2.67;;;6.50;99.90;;;;;;6210476;23;20015;-75
2021/12/18 00:15:38;;;;;;;12.20;2.42;;;6.50;99.90;;;;;;6186328;23;20013;-76
2021/12/18 00:18:03;;;;;;;19.10;2.95;;;6.40;99.90;;;;;;6211427;23;20115;-76
2021/12/18 00:20:30;;;;;;;17.25;3.53;;;6.40;99.90;;;;;;6212152;23;20025;-76
2021/12/18 00:22:56;;;;;;;6.30;2.53;;;6.50;99.90;;;;;;6184513;23;20644;-76
2021/12/18 00:25:23;;;;;;;14.45;2.80;;;6.50;99.90;;;;;;6186031;23;20127;-76
2021/12/18 00:27:49;;;;;;;6.22;2.30;;;6.50;99.90;;;;;;6210561;23;20017;-76
2021/12/18 00:30:16;;;;;;;9.00;2.42;;;6.50;99.90;;;;;;6211517;23;20080;-76
2021/12/18 00:32:41;;;;;;;7.95;2.50;;;6.50;99.90;;;;;;6211584;23;20040;-76
2021/12/18 00:35:07;;;;;;;6.88;1.73;;;6.50;99.90;;;;;;6185595;23;20420;-76
2021/12/18 00:37:33;;;;;;;14.57;2.25;;;6.40;99.90;;;;;;6211671;23;20083;-76
2021/12/18 00:40:00;;;;;;;21.27;2.47;;;6.40;99.90;;;;;;6210492;23;20016;-76
2021/12/18 00:45:07;;;;;;;10.88;2.55;;;6.40;99.90;;;;;;6211030;23;20083;-76
2021/12/18 00:47:33;;;;;;;17.45;3.17;;;6.40;99.90;;;;;;6211480;23;20027;-76
2021/12/18 00:49:58;;;;;;;12.40;2.85;;;6.40;99.90;;;;;;6211219;23;20017;-76
2021/12/18 00:52:24;;;;;;;9.88;2.60;;;6.40;99.90;;;;;;6212155;23;20462;-76
2021/12/18 00:54:50;;;;;;;11.60;2.55;;;6.50;99.90;;;;;;6184516;23;20321;-76
2021/12/18 00:57:16;;;;;;;14.43;3.00;;;6.50;99.90;;;;;;6210587;23;20005;-76
2021/12/18 00:59:42;;;;;;;25.20;2.95;;;6.50;99.90;;;;;;6208929;23;20110;-76
2021/12/18 01:02:08;;;;;;;32.42;2.83;;;6.50;99.90;;;;;;6211233;23;20121;-76
2021/12/18 01:04:34;;;;;;;12.02;2.60;;;6.50;99.90;;;;;;6210458;23;20075;-76
2021/12/18 01:07:00;;;;;;;21.67;2.97;;;6.50;99.90;;;;;;6210851;23;20020;-76
2021/12/18 01:12:33;;;;;;;13.18;2.67;;;6.40;99.90;;;;;;6125917;23;20099;-76
2021/12/18 01:25:07;;;;;;;17.02;2.83;;;6.30;99.90;;;;;;6125699;23;20075;-76
2021/12/18 01:27:33;;;;;;;23.17;2.35;;;6.30;99.90;;;;;;6101222;23;20221;-76
2021/12/18 01:29:58;;;;;;;20.30;2.75;;;6.30;99.90;;;;;;6100486;23;20088;-76
2021/12/18 01:32:26;;;;;;;5.43;1.90;;;6.30;99.90;;;;;;6125884;23;20107;-76
2021/12/18 01:34:51;;;;;;;6.60;1.90;;;6.30;99.90;;;;;;6125496;23;20434;-76
2021/12/18 01:37:19;;;;;;;10.48;2.28;;;6.40;99.90;;;;;;6126169;23;20056;-76
2021/12/18 01:39:45;;;;;;;19.77;2.40;;;6.30;99.90;;;;;;6101168;23;20026;-76
2021/12/18 01:52:54;;;;;;;7.75;2.22;;;6.20;99.90;;;;;;6210894;23;20421;-76
2021/12/18 01:55:31;;;;;;;7.90;1.83;;;6.30;99.90;;;;;;6211665;23;20009;-76
2021/12/18 01:57:57;;;;;;;18.90;2.25;;;6.30;99.90;;;;;;6210102;23;20035;-76
2021/12/18 02:00:27;;;;;;;9.52;1.90;;;6.30;99.90;;;;;;6211713;23;20055;-76
2021/12/18 02:02:53;;;;;;;10.20;2.33;;;6.30;99.90;;;;;;6210982;23;20013;-76
2021/12/18 02:05:20;;;;;;;11.73;2.80;;;6.30;99.90;;;;;;6211243;23;20020;-76
2021/12/18 02:07:46;;;;;;;15.68;3.33;;;6.30;99.90;;;;;;6210548;23;20032;-76
2021/12/18 02:10:19;;;;;;;16.52;3.75;;;6.30;99.90;;;;;;6211076;23;20019;-76
2021/12/18 02:20:58;;;;;;;6.30;2.60;;;6.40;99.90;;;;;;6211496;23;20017;-76
2021/12/18 02:23:24;;;;;;;8.63;2.45;;;6.30;99.90;;;;;;6212220;23;20015;-76
2021/12/18 02:25:51;;;;;;;10.23;2.13;;;6.30;99.90;;;;;;6212235;23;20016;-76
2021/12/18 02:28:22;;;;;;;14.73;2.83;;;6.30;99.90;;;;;;6184399;23;20032;-76
2021/12/18 02:30:51;;;;;;;12.98;3.05;;;6.30;99.90;;;;;;6187913;23;20020;-76
2021/12/18 02:33:16;;;;;;;15.88;3.25;;;6.30;99.90;;;;;;6212831;23;20024;-76
2021/12/18 02:35:49;;;;;;;9.85;2.50;;;6.30;99.90;;;;;;6188417;23;20103;-76
2021/12/18 02:38:31;;;;;;;14.52;3.38;;;6.30;99.90;;;;;;6212482;23;20024;-77
2021/12/18 02:41:08;;;;;;;9.70;3.00;;;6.30;99.90;;;;;;6212852;23;20021;-76
2021/12/18 02:43:36;;;;;;;6.97;2.55;;;6.30;99.90;;;;;;6210634;23;20012;-76
2021/12/18 02:46:07;;;;;;;12.48;3.08;;;6.30;99.90;;;;;;6212820;23;20012;-75
2021/12/18 02:48:39;;;;;;;9.70;3.63;;;6.30;99.90;;;;;;6212549;23;20071;-76
2021/12/18 02:51:06;;;;;;;7.20;2.35;;;6.30;99.90;;;;;;6186969;23;20337;-76
2021/12/18 02:53:33;;;;;;;7.78;3.03;;;6.30;99.90;;;;;;6211476;23;20017;-76
2021/12/18 02:56:03;;;;;;;12.88;3.00;;;6.40;99.90;;;;;;6212631;23;20028;-76
2021/12/18 02:58:30;;;;;;;7.47;2.60;;;6.40;99.90;;;;;;6186311;23;20104;-76
2021/12/18 03:00:57;;;;;;;8.55;2.42;;;6.40;99.90;;;;;;6211270;23;20337;-76
2021/12/18 03:03:27;;;;;;;9.05;1.95;;;6.40;99.90;;;;;;6212050;23;20036;-76
2021/12/18 03:08:50;;;;;;;6.43;1.60;;;6.40;99.90;;;;;;6211733;23;20025;-76
2021/12/18 03:25:01;;;;;;;10.52;2.28;;;6.50;99.90;;;;;;6211139;23;20095;-76
2021/12/18 03:27:22;;;;;;;8.27;1.90;;;6.50;99.90;;;;;;6210840;23;20199;-76
2021/12/18 03:29:49;;;;;;;5.50;1.60;;;6.50;99.90;;;;;;6185570;23;20128;-76
2021/12/18 03:32:15;;;;;;;6.60;1.98;;;6.50;99.90;;;;;;6186419;23;20017;-76
2021/12/18 03:34:40;;;;;;;10.73;1.65;;;6.60;99.90;;;;;;6211562;23;20051;-77
2021/12/18 03:37:06;;;;;;;6.20;1.80;;;6.50;99.90;;;;;;6212026;23;20012;-75
2021/12/18 03:39:35;;;;;;;5.50;1.50;;;6.50;99.90;;;;;;6185491;23;20092;-76
2021/12/18 03:42:02;;;;;;;7.53;1.38;;;6.50;99.90;;;;;;6211771;23;20384;-76
2021/12/18 03:44:28;;;;;;;4.30;1.55;;;6.50;99.90;;;;;;6185083;23;20024;-76
2021/12/18 03:46:55;;;;;;;5.25;1.65;;;6.50;99.90;;;;;;6210902;23;20074;-76
2021/12/18 03:49:20;;;;;;;6.40;1.48;;;6.50;99.90;;;;;;6213488;23;20019;-77
2021/12/18 03:51:46;;;;;;;7.55;1.60;;;6.60;99.90;;;;;;6211362;23;20384;-76
2021/12/18 03:54:11;;;;;;;7.32;1.67;;;6.50;99.90;;;;;;6210621;23;20044;-76
2021/12/18 03:56:37;;;;;;;9.68;1.73;;;6.50;99.90;;;;;;6210389;23;20036;-76
2021/12/18 03:59:03;;;;;;;8.52;1.63;;;6.50;99.90;;;;;;6184869;23;20021;-76
2021/12/18 04:01:29;;;;;;;14.63;1.90;;;6.50;99.90;;;;;;6211731;23;20087;-77
2021/12/18 04:03:54;;;;;;;12.88;1.70;;;6.60;99.90;;;;;;6211406;23;20017;-76
2021/12/18 04:06:20;;;;;;;11.25;1.63;;;6.60;99.90;;;;;;6185165;23;20059;-76
2021/12/18 04:08:46;;;;;;;10.57;1.58;;;6.60;99.90;;;;;;6185502;23;20420;-76
2021/12/18 04:11:12;;;;;;;11.38;1.90;;;6.60;99.90;;;;;;6187219;23;20186;-76
2021/12/18 04:13:43;;;;;;;7.60;1.95;;;6.60;99.90;;;;;;6210987;23;20016;-75
2021/12/18 04:16:09;;;;;;;8.50;2.17;;;6.60;99.90;;;;;;6186779;23;20461;-76
2021/12/18 04:18:34;;;;;;;10.60;1.83;;;6.60;99.90;;;;;;6211434;23;20075;-76
2021/12/18 04:21:00;;;;;;;7.05;1.98;;;6.60;99.90;;;;;;6211405;23;20021;-76
2021/12/18 04:23:26;;;;;;;10.05;2.53;;;6.60;99.90;;;;;;6186412;23;20017;-76
2021/12/18 04:25:51;;;;;;;9.68;2.70;;;6.60;99.90;;;;;;6185790;23;20013;-76
2021/12/18 04:28:17;;;;;;;9.35;2.40;;;6.70;99.90;;;;;;6210536;23;20016;-77
2021/12/18 04:30:43;;;;;;;12.90;2.78;;;6.60;99.90;;;;;;6211740;23;20459;-76
2021/12/18 04:33:09;;;;;;;7.10;2.58;;;6.70;99.90;;;;;;6211656;23;20024;-76
2021/12/18 04:35:34;;;;;;;9.63;2.85;;;6.60;99.90;;;;;;6211939;23;20012;-76
2021/12/18 04:38:00;;;;;;;11.70;2.95;;;6.70;99.90;;;;;;6211402;23;20016;-76
2021/12/18 04:40:26;;;;;;;10.93;2.58;;;6.70;99.90;;;;;;6211593;23;20452;-76
2021/12/18 04:42:53;;;;;;;8.02;2.92;;;6.70;99.90;;;;;;6209772;23;20024;-76
2021/12/18 04:45:19;;;;;;;13.75;3.17;;;6.80;99.90;;;;;;6212230;23;20020;-76
2021/12/18 04:47:45;;;;;;;12.77;3.00;;;6.80;99.90;;;;;;6186290;23;20067;-76
2021/12/18 04:50:10;;;;;;;15.35;3.22;;;6.80;99.90;;;;;;6211503;23;20044;-76
2021/12/18 04:52:36;;;;;;;8.48;2.92;;;6.80;99.90;;;;;;6212134;23;20061;-76
2021/12/18 04:55:04;;;;;;;8.93;2.90;;;6.80;99.90;;;;;;6186542;23;20009;-76
2021/12/18 04:57:29;;;;;;;12.07;3.63;;;6.80;99.90;;;;;;6211851;23;20022;-76
2021/12/18 04:59:55;;;;;;;10.82;3.80;;;6.80;99.90;;;;;;6210855;23;20024;-76
2021/12/18 05:02:25;;;;;;;15.52;4.55;;;6.80;99.90;;;;;;6186393;23;20025;-77
2021/12/18 05:04:52;;;;;;;17.75;5.13;;;6.90;99.90;;;;;;6211857;23;20046;-76
2021/12/18 05:07:18;;;;;;;20.52;6.80;;;6.90;99.90;;;;;;6185919;23;20016;-76
2021/12/18 05:09:44;;;;;;;22.05;6.38;;;7.00;99.90;;;;;;6185213;23;20452;-77
2021/12/18 05:12:10;;;;;;;23.90;7.22;;;7.10;99.90;;;;;;6186378;23;20015;-77
2021/12/18 05:14:37;;;;;;;16.55;6.57;;;7.10;99.90;;;;;;6184638;23;20051;-76
2021/12/18 05:17:03;;;;;;;17.73;6.95;;;7.20;99.90;;;;;;6211639;23;20009;-76
2021/12/18 05:19:28;;;;;;;21.73;7.10;;;7.10;99.90;;;;;;6211308;23;20044;-76
2021/12/18 05:21:54;;;;;;;23.00;6.10;;;7.20;99.90;;;;;;6212079;23;20441;-76
2021/12/18 05:24:20;;;;;;;24.92;5.82;;;7.20;99.90;;;;;;6185849;23;20100;-76
2021/12/18 05:26:46;;;;;;;18.02;6.22;;;7.30;99.90;;;;;;6212199;23;20008;-76
2021/12/18 05:29:11;;;;;;;19.35;5.50;;;7.30;99.90;;;;;;6210669;23;20090;-76
2021/12/18 05:31:37;;;;;;;21.02;5.65;;;7.30;99.90;;;;;;6211838;23;20005;-76
2021/12/18 05:34:04;;;;;;;23.70;6.15;;;7.40;99.90;;;;;;6211608;23;20448;-76
2021/12/18 05:39:03;;;;;;;25.33;6.22;;;7.30;99.90;;;;;;6213852;23;20016;-76
2021/12/18 05:41:29;;;;;;;22.58;6.53;;;7.40;99.90;;;;;;6210948;23;20028;-76
2021/12/18 05:43:55;;;;;;;21.00;6.07;;;7.50;99.90;;;;;;6210622;23;20017;-76
2021/12/18 05:46:20;;;;;;;21.38;6.50;;;7.50;99.90;;;;;;6213969;23;20016;-76
2021/12/18 05:48:46;;;;;;;19.92;5.28;;;7.50;99.90;;;;;;6187856;23;20016;-77
2021/12/18 05:51:12;;;;;;;15.18;5.90;;;7.50;99.90;;;;;;6213323;23;20087;-77
2021/12/18 05:53:39;;;;;;;28.73;7.20;;;7.60;99.90;;;;;;6187122;23;20012;-76
2021/12/18 05:56:04;;;;;;;22.13;8.02;;;7.60;99.90;;;;;;6211926;23;20368;-76
2021/12/18 05:58:30;;;;;;;24.75;7.82;;;7.60;99.90;;;;;;6211060;23;20028;-76
2021/12/18 06:00:56;;;;;;;22.15;7.85;;;7.70;99.90;;;;;;6187750;23;20048;-77
2021/12/18 06:03:21;;;;;;;24.77;10.00;;;7.70;99.90;;;;;;6214532;23;20063;-78
2021/12/18 06:05:47;;;;;;;25.42;10.27;;;7.70;99.90;;;;;;6185213;23;20096;-77
2021/12/18 06:08:14;;;;;;;24.35;9.80;;;7.70;99.90;;;;;;6212480;23;20024;-76
2021/12/18 06:10:40;;;;;;;25.52;9.20;;;7.70;99.90;;;;;;6214734;23;20083;-76
2021/12/18 06:13:06;;;;;;;30.55;9.93;;;7.70;99.90;;;;;;6185620;23;20023;-76
2021/12/18 06:15:32;;;;;;;21.60;10.00;;;7.70;99.90;;;;;;6212757;23;20363;-76
2021/12/18 06:17:59;;;;;;;28.88;10.98;;;7.70;99.90;;;;;;6213317;23;20467;-76
2021/12/18 06:20:26;;;;;;;19.75;8.30;;;7.70;99.90;;;;;;6212785;23;20016;-76
2021/12/18 06:22:52;;;;;;;22.33;7.97;;;7.70;99.90;;;;;;6211104;23;20021;-76
2021/12/18 06:25:20;;;;;;;18.90;6.03;;;7.70;99.90;;;;;;6209902;23;20021;-76
2021/12/18 06:27:46;;;;;;;11.50;4.72;;;7.80;99.90;;;;;;6211083;23;20017;-76
2021/12/18 06:30:13;;;;;;;15.15;4.72;;;7.80;99.90;;;;;;6185436;23;20024;-76
2021/12/18 06:32:39;;;;;;;18.02;4.80;;;7.80;99.90;;;;;;6212500;23;20013;-75
2021/12/18 06:35:09;;;;;;;15.30;4.78;;;7.80;99.90;;;;;;6212561;23;20012;-75
2021/12/18 06:37:35;;;;;;;19.08;4.55;;;7.80;99.90;;;;;;6212525;23;20436;-76
2021/12/18 06:40:00;;;;;;;15.02;4.70;;;7.80;99.90;;;;;;6212206;23;20017;-76
2021/12/18 06:42:26;;;;;;;9.73;4.03;;;7.80;99.90;;;;;;6186915;23;20012;-76
2021/12/18 06:44:52;;;;;;;13.25;4.50;;;7.80;99.90;;;;;;6211393;23;20195;-76
2021/12/18 06:47:17;;;;;;;16.10;5.00;;;7.80;99.90;;;;;;6186278;23;20012;-76
2021/12/18 06:49:43;;;;;;;11.57;4.65;;;7.80;99.90;;;;;;6210825;23;20023;-76
2021/12/18 06:52:09;;;;;;;13.77;5.00;;;7.90;99.90;;;;;;6212964;23;20011;-77
2021/12/18 06:54:34;;;;;;;16.80;5.07;;;7.80;99.90;;;;;;6186231;23;20024;-78
2021/12/18 06:57:02;;;;;;;12.95;4.75;;;7.80;99.90;;;;;;6186499;23;20099;-78
2021/12/18 06:59:28;;;;;;;14.88;4.20;;;8.10;99.90;;;;;;6185137;23;20054;-77
2021/12/18 07:01:54;;;;;;;13.70;4.55;;;7.90;99.90;;;;;;6212092;23;20091;-77
2021/12/18 07:04:20;;;;;;;15.38;4.53;;;7.90;99.90;;;;;;6211269;23;20044;-76
2021/12/18 07:06:46;;;;;;;9.10;3.78;;;7.90;99.90;;;;;;6211953;23;20008;-76
2021/12/18 07:09:12;;;;;;;9.95;3.97;;;7.90;99.90;;;;;;6186678;23;20048;-75
2021/12/18 07:11:37;;;;;;;15.70;4.07;;;7.90;99.90;;;;;;6212565;23;20019;-75
2021/12/18 07:14:03;;;;;;;8.40;3.10;;;7.90;99.90;;;;;;6185816;23;20104;-78
2021/12/18 07:16:29;;;;;;;9.27;3.55;;;7.90;99.90;;;;;;6211367;23;20021;-76
2021/12/18 07:18:54;;;;;;;16.33;3.78;;;7.90;99.90;;;;;;6185976;23;20017;-77
2021/12/18 07:21:20;;;;;;;14.15;3.38;;;8.00;99.90;;;;;;6187152;23;20017;-77
2021/12/18 07:23:46;;;;;;;10.82;3.38;;;8.00;99.90;;;;;;6211937;23;20016;-77
2021/12/18 07:26:12;;;;;;;13.98;3.47;;;8.10;99.90;;;;;;6214158;23;20017;-78
2021/12/18 07:28:38;;;;;;;15.63;3.53;;;8.00;99.90;;;;;;6210921;23;20019;-77
2021/12/18 07:31:04;;;;;;;12.32;3.55;;;8.00;99.90;;;;;;6185714;23;20027;-77
2021/12/18 07:33:30;;;;;;;10.98;3.63;;;8.00;99.90;;;;;;6186954;23;20017;-77
2021/12/18 07:35:55;;;;;;;26.35;4.28;;;8.00;99.90;;;;;;6211963;23;20008;-78
2021/12/18 07:38:21;;;;;;;17.38;4.50;;;8.00;99.90;;;;;;6211956;23;20040;-78
2021/12/18 07:40:47;;;;;;;11.27;3.90;;;8.00;99.90;;;;;;6211783;23;20017;-77
2021/12/18 07:43:12;;;;;;;14.63;3.63;;;8.10;99.90;;;;;;6209764;23;20024;-77
2021/12/18 07:45:38;;;;;;;16.50;3.25;;;8.10;99.90;;;;;;6211857;23;20016;-78
2021/12/18 07:48:05;;;;;;;12.82;4.00;;;8.00;99.90;;;;;;6211568;23;20017;-77
2021/12/18 07:50:31;;;;;;;12.35;3.83;;;8.10;99.90;;;;;;6187401;23;20060;-77
2021/12/18 07:52:58;;;;;;;14.88;3.85;;;8.10;99.90;;;;;;6213468;23;20016;-77
2021/12/18 07:55:23;;;;;;;14.50;4.15;;;8.10;99.90;;;;;;6186515;23;20427;-77
2021/12/18 07:57:51;;;;;;;19.23;4.05;;;8.10;99.90;;;;;;6211508;23;20049;-78
2021/12/18 08:00:17;;;;;;;14.77;3.85;;;8.10;99.90;;;;;;6210154;23;20377;-76
2021/12/18 08:02:43;;;;;;;17.27;4.15;;;8.10;99.90;;;;;;6210770;23;20016;-75
2021/12/18 08:05:09;;;;;;;16.95;3.97;;;8.10;99.90;;;;;;6211104;23;20018;-78
2021/12/18 08:07:34;;;;;;;11.40;3.50;;;8.10;99.90;;;;;;6209765;23;20009;-77
2021/12/18 08:10:00;;;;;;;13.70;3.50;;;8.10;99.90;;;;;;6209911;23;20282;-77
2021/12/18 08:12:26;;;;;;;15.05;3.78;;;8.10;99.90;;;;;;6185730;23;20021;-76
2021/12/18 08:14:52;;;;;;;16.55;3.88;;;8.20;99.90;;;;;;6209486;23;20021;-76
2021/12/18 08:17:18;;;;;;;12.38;3.33;;;8.10;99.90;;;;;;6185241;23;20016;-76
2021/12/18 08:19:43;;;;;;;15.68;3.13;;;8.10;99.90;;;;;;6210204;23;20416;-76
2021/12/18 08:22:09;;;;;;;15.18;3.63;;;8.10;99.90;;;;;;6187745;23;20067;-77
2021/12/18 08:31:56;;;;;;;7.75;2.50;;;8.10;99.90;;;;;;6215031;23;20078;-77
2021/12/18 08:34:24;;;;;;;10.05;2.50;;;8.10;99.90;;;;;;6213110;23;20013;-77
2021/12/18 08:36:49;;;;;;;10.63;2.67;;;8.20;99.90;;;;;;6188704;23;20356;-77
2021/12/18 08:39:15;;;;;;;7.85;2.47;;;8.30;99.90;;;;;;6210757;23;20024;-77
2021/12/18 08:41:42;;;;;;;18.13;2.78;;;8.20;99.90;;;;;;6211374;23;20091;-76
2021/12/18 08:44:08;;;;;;;11.65;2.58;;;8.20;99.90;;;;;;6209465;23;20077;-76
2021/12/18 08:46:35;;;;;;;12.60;2.90;;;8.20;99.90;;;;;;6185515;23;20020;-76
2021/12/18 08:49:01;;;;;;;10.40;2.85;;;8.20;99.90;;;;;;6210175;23;20457;-76
2021/12/18 08:51:26;;;;;;;11.20;2.90;;;8.30;99.90;;;;;;6159601;23;20067;-76
2021/12/18 08:53:53;;;;;;;14.10;3.05;;;8.20;99.90;;;;;;6186350;23;20683;-76
2021/12/18 08:56:18;;;;;;;10.20;3.03;;;8.20;99.90;;;;;;6211210;23;20469;-77
2021/12/18 08:58:44;;;;;;;8.05;2.70;;;8.20;99.90;;;;;;6207834;23;20027;-76
2021/12/18 09:01:10;;;;;;;14.02;2.60;;;8.20;99.90;;;;;;6185690;23;20020;-76
2021/12/18 09:03:35;;;;;;;11.43;2.90;;;8.30;99.90;;;;;;6186244;23;20016;-77
2021/12/18 09:06:01;;;;;;;8.98;2.40;;;8.20;99.90;;;;;;6210602;23;20030;-76
2021/12/18 09:08:27;;;;;;;10.88;2.55;;;8.20;99.90;;;;;;6184691;23;20286;-76
2021/12/18 09:10:53;;;;;;;16.70;3.28;;;8.30;99.90;;;;;;6210414;23;20016;-77
2021/12/18 09:13:19;;;;;;;15.15;2.95;;;8.30;99.90;;;;;;6183608;23;20020;-79
2021/12/18 09:15:45;;;;;;;16.40;3.00;;;8.30;99.90;;;;;;6210326;23;20013;-79
2021/12/18 09:18:11;;;;;;;15.82;2.92;;;8.30;99.90;;;;;;6184839;23;20027;-78
2021/12/18 09:20:36;;;;;;;16.83;3.42;;;8.30;99.90;;;;;;6211743;23;20333;-79
2021/12/18 09:23:02;;;;;;;15.18;3.13;;;8.30;99.90;;;;;;6210148;23;20110;-77
2021/12/18 09:25:29;;;;;;;17.50;3.38;;;8.30;99.90;;;;;;6210105;23;20016;-81
2021/12/18 09:27:59;;;;;;;15.10;3.50;;;8.40;99.90;;;;;;6209149;23;20135;-80
2021/12/18 09:30:25;;;;;;;8.93;3.63;;;8.50;99.90;;;;;;6212873;23;20143;-81
2021/12/18 09:32:59;;;;;;;13.38;4.50;;;8.40;99.90;;;;;;6208209;23;20051;-82
2021/12/18 09:35:33;;;;;;;10.40;4.13;;;8.30;99.90;;;;;;6185886;23;20009;-82
2021/12/18 09:38:02;;;;;;;11.48;4.15;;;8.40;99.90;;;;;;6186029;23;20013;-80
2021/12/18 09:40:29;;;;;;;12.63;4.65;;;8.40;99.90;;;;;;6208792;23;20028;-79
2021/12/18 09:42:55;;;;;;;13.05;4.13;;;8.40;99.90;;;;;;6184381;23;20047;-76
2021/12/18 09:45:22;;;;;;;8.25;3.85;;;8.40;99.90;;;;;;6185528;23;20017;-77
2021/12/18 09:47:47;;;;;;;11.00;3.90;;;8.40;99.90;;;;;;6210837;23;20016;-77
2021/12/18 09:50:15;;;;;;;10.13;3.88;;;8.50;99.90;;;;;;6185321;23;20024;-78
2021/12/18 09:52:41;;;;;;;10.95;4.20;;;8.40;99.90;;;;;;6212049;23;20121;-78
2021/12/18 09:55:08;;;;;;;10.98;3.72;;;8.50;99.90;;;;;;6185633;23;20384;-78
2021/12/18 09:57:35;;;;;;;11.18;3.80;;;8.50;99.90;;;;;;6210379;23;20048;-78
2021/12/18 10:00:06;;;;;;;14.20;4.10;;;8.50;99.90;;;;;;6210142;23;20047;-77
2021/12/18 10:02:32;;;;;;;7.60;4.10;;;8.50;99.90;;;;;;6185730;23;20023;-77
2021/12/18 10:04:59;;;;;;;7.15;3.25;;;8.50;99.90;;;;;;6186692;23;20048;-77
2021/12/18 10:07:27;;;;;;;13.20;4.07;;;8.50;99.90;;;;;;6185013;23;20024;-78
2021/12/18 10:10:15;;;;;;;10.95;3.78;;;8.50;99.90;;;;;;6185362;23;20385;-80
2021/12/18 10:13:34;;;;;;;15.05;4.05;;;8.60;99.90;;;;;;6185954;23;20025;-80
2021/12/18 10:19:54;;;;;;;12.45;4.70;;;8.30;99.90;;;;;;6094355;23;20104;-80
2021/12/18 10:23:18;;;;;;;14.57;4.93;;;8.50;99.90;;;;;;6074237;23;20060;-81
2021/12/18 10:30:20;;;;;;;;;;;;;;;;;;;;;
2021/12/18 10:34:02;;;;;;;14.70;5.18;;;8.90;99.90;;;;;;6097715;23;20010;-81
2021/12/18 10:48:45;;;;;;;15.13;3.83;;;8.60;99.90;;;;;;5982869;23;20464;-81
2021/12/18 10:52:12;;;;;;;16.65;4.22;;;8.40;99.90;;;;;;5987235;23;20450;-81
2021/12/18 10:55:41;;;;;;;15.75;4.60;;;8.60;99.90;;;;;;5942393;24;20027;-81
2021/12/18 11:02:51;;;;;;;21.05;4.38;;;8.30;99.90;;;;;;5983918;23;20042;-80
2021/12/18 11:05:32;;;;;;;11.45;4.05;;;8.30;99.90;;;;;;6001594;23;20031;-80
2021/12/18 11:08:58;;;;;;;;;;;;;;;;;;;;;
2021/12/18 11:22:27;;;;;;;12.05;2.95;;;8.80;99.90;;;;;;5965430;23;20024;-81
2021/12/18 11:33:39;;;;;;;15.40;3.10;;;8.80;99.90;;;;;;5763043;24;20268;-81
2021/12/18 11:40:54;;;;;;;;;;;;;;;;;;;;;
2021/12/18 11:43:58;;;;;;;8.10;2.60;;;8.90;99.90;;;;;;5840164;24;20014;-81
2021/12/18 11:47:44;;;;;;;13.85;2.83;;;9.10;99.90;;;;;;5818060;24;20101;-80
2021/12/18 11:50:48;;;;;;;8.63;2.75;;;8.90;99.90;;;;;;4651568;27;13686828;-80
2021/12/18 11:53:16;;;;;;;13.40;2.70;;;9.00;99.90;;;;;;5103246;28;20054;-78
2021/12/18 11:55:51;;;;;;;12.05;2.70;;;8.90;99.90;;;;;;5121976;28;20031;-80
2021/12/18 11:58:34;;;;;;;;;;;8.90;99.90;;;;;;5094427;28;20506;-78
2021/12/18 12:01:14;;;;;;;10.20;2.90;;;9.00;99.90;;;;;;5095158;28;19968;-81
2021/12/18 12:03:44;;;;;;;10.98;2.78;;;9.00;99.90;;;;;;5101535;28;20039;-80
2021/12/18 12:06:25;;;;;;;10.23;3.00;;;9.00;99.90;;;;;;5079674;28;20051;-80
2021/12/18 12:12:06;;;;;;;11.52;2.88;;;9.00;99.90;;;;;;5103518;28;20075;-80
2021/12/18 12:14:43;;;;;;;12.15;2.67;;;9.00;99.90;;;;;;5098001;28;20058;-81
2021/12/18 12:17:11;;;;;;;10.43;2.97;;;9.10;99.90;;;;;;5081675;28;20100;-80
2021/12/18 12:19:39;;;;;;;13.98;3.17;;;9.10;99.90;;;;;;5104734;28;20062;-80
2021/12/18 12:22:29;;;;;;;13.75;3.40;;;9.10;99.90;;;;;;5087633;28;20104;-81
2021/12/18 12:24:57;;;;;;;11.82;2.63;;;9.10;99.90;;;;;;5109093;28;20051;-81
2021/12/18 12:27:31;;;;;;;12.10;3.33;;;9.00;99.90;;;;;;5092704;28;20354;-80
2021/12/18 12:30:01;;;;;;;19.20;3.58;;;9.10;99.90;;;;;;5091320;28;20051;-80
2021/12/18 12:32:33;;;;;;;13.90;3.22;;;9.10;99.90;;;;;;5109521;28;20066;-80
2021/12/18 12:35:13;;;;;;;13.68;3.55;;;9.10;99.90;;;;;;5090427;28;20153;-80
2021/12/18 12:37:50;;;;;;;9.95;2.90;;;9.00;99.90;;;;;;5080214;28;20494;-80
2021/12/18 12:41:22;;;;;;;17.80;3.88;;;9.10;99.90;;;;;;5055235;28;20168;-80
2021/12/18 12:45:10;;;;;;;15.65;3.67;;;8.80;99.90;;;;;;5004472;28;20145;-80
2021/12/18 12:48:11;;;;;;;12.00;2.90;;;9.00;99.90;;;;;;5003656;28;20169;-82
2021/12/18 12:51:35;;;;;;;10.55;3.03;;;9.00;99.90;;;;;;4980558;28;20078;-82
2021/12/18 12:54:54;;;;;;;16.10;3.55;;;9.10;99.90;;;;;;4907421;29;20453;-79
2021/12/18 12:57:41;;;;;;;17.92;3.47;;;9.00;99.90;;;;;;4903298;29;20040;-80
2021/12/18 13:00:06;;;;;;;14.70;3.10;;;9.00;99.90;;;;;;4904248;29;20441;-82
2021/12/18 13:02:38;;;;;;;10.98;2.83;;;9.00;99.90;;;;;;4883515;29;20056;-79
2021/12/18 13:05:07;;;;;;;10.23;2.75;;;8.90;99.90;;;;;;4913933;29;20055;-83
2021/12/18 13:07:33;;;;;;;7.72;2.10;;;8.90;99.90;;;;;;4900328;29;20107;-82
2021/12/18 13:09:59;;;;;;;14.43;2.80;;;9.00;99.90;;;;;;4907010;29;20119;-79
2021/12/18 13:12:25;;;;;;;10.95;2.63;;;8.90;99.90;;;;;;4900265;29;20200;-79
2021/12/18 13:14:52;;;;;;;12.07;2.97;;;8.90;99.90;;;;;;4895449;29;20452;-76
2021/12/18 13:17:26;;;;;;;16.15;2.80;;;8.90;99.90;;;;;;4917197;28;20104;-79
2021/12/18 13:20:01;;;;;;;11.77;2.63;;;9.00;99.90;;;;;;4927380;28;20549;-80
2021/12/18 13:22:35;;;;;;;12.52;2.58;;;8.90;99.90;;;;;;4976962;28;20038;-80
2021/12/18 13:25:01;;;;;;;;;;;8.90;99.90;;;;;;4993383;28;20053;-82
2021/12/18 13:27:39;;;;;;;15.52;2.63;;;8.90;99.90;;;;;;4951335;28;19918;-80
2021/12/18 13:30:14;;;;;;;7.70;1.90;;;8.90;99.90;;;;;;4974933;28;20068;-81
2021/12/18 13:37:21;;;;;;;9.40;1.60;;;8.80;99.90;;;;;;4877522;29;20092;-80
2021/12/18 13:44:08;;;;;;;19.08;3.17;;;8.70;99.90;;;;;;4873766;29;20052;-80
2021/12/18 13:47:20;;;;;;;13.32;2.72;;;8.70;99.90;;;;;;4877700;29;20196;-80
2021/12/18 13:50:51;;;;;;;17.88;2.63;;;8.20;99.90;;;;;;4776602;29;20518;-81
2021/12/18 13:57:11;;;;;;;11.38;2.45;;;9.40;99.90;;;;;;4783642;29;20679;-80
2021/12/18 14:03:52;;;;;;;10.07;2.22;;;8.50;99.90;;;;;;4793531;29;20060;-80
2021/12/18 14:06:46;;;;;;;9.45;2.10;;;8.30;99.90;;;;;;4805716;29;20122;-81
2021/12/18 14:09:59;;;;;;;13.35;3.17;;;8.70;99.90;;;;;;4804073;29;20058;-81
2021/12/18 14:12:28;;;;;;;16.17;2.90;;;9.40;99.90;;;;;;4740451;30;20044;-78
2021/12/18 14:14:54;;;;;;;5.53;2.20;;;8.70;99.90;;;;;;4718128;30;20041;-78
2021/12/18 14:17:26;;;;;;;8.77;3.08;;;9.30;99.90;;;;;;4732048;30;20045;-79
2021/12/18 14:19:53;;;;;;;13.35;2.30;;;8.70;99.90;;;;;;4746444;30;22011;-80
2021/12/18 14:22:28;;;;;;;9.93;2.60;;;8.60;99.90;;;;;;4760009;30;20059;-80
2021/12/18 14:25:00;;;;;;;;;;;8.70;99.90;;;;;;4745872;30;20076;-81
2021/12/18 14:27:44;;;;;;;10.10;2.75;;;8.70;99.90;;;;;;4754138;30;20395;-81
2021/12/18 14:30:26;;;;;;;11.07;3.30;;;8.60;99.90;;;;;;4787416;29;20689;-82
2021/12/18 14:33:14;;;;;;;15.98;3.80;;;8.60;99.90;;;;;;4843798;29;20529;-82
2021/12/18 14:35:51;;;;;;;13.10;3.63;;;8.60;99.90;;;;;;4908502;29;20049;-79
2021/12/18 14:38:19;;;;;;;14.35;3.45;;;8.70;99.90;;;;;;4881148;28;20068;-81
2021/12/18 14:40:57;;;;;;;8.68;2.95;;;8.60;99.90;;;;;;4954003;28;20044;-80
2021/12/18 14:43:25;;;;;;;10.27;2.45;;;8.60;99.90;;;;;;4949408;28;20402;-82
2021/12/18 14:45:52;;;;;;;21.80;3.13;;;8.60;99.90;;;;;;4947807;28;20517;-82
2021/12/18 14:48:32;;;;;;;14.52;3.25;;;8.50;99.90;;;;;;4985298;28;20049;-79
2021/12/18 14:50:58;;;;;;;12.68;3.47;;;8.50;99.90;;;;;;5046814;28;20044;-80
2021/12/18 14:53:24;;;;;;;8.90;2.80;;;8.50;99.90;;;;;;5080868;28;20059;-80
2021/12/18 14:56:00;;;;;;;9.90;3.83;;;8.50;99.90;;;;;;5063003;28;20044;-78
2021/12/18 14:58:40;;;;;;;11.00;3.78;;;8.50;99.90;;;;;;5080864;28;20052;-82
2021/12/18 15:01:11;;;;;;;13.75;3.38;;;8.80;99.90;;;;;;5084967;28;20588;-84
2021/12/18 15:03:51;;;;;;;16.52;3.72;;;8.50;99.90;;;;;;5058239;28;20054;-81
2021/12/18 15:06:28;;;;;;;19.85;4.25;;;8.50;99.90;;;;;;5075551;28;20079;-83
2021/12/18 15:09:01;;;;;;;17.42;7.22;;;8.40;99.90;;;;;;5092328;28;20383;-81
2021/12/18 15:15:14;;;;;;;12.93;3.60;;;8.50;99.90;;;;;;5089376;28;20035;-81
2021/12/18 15:17:40;;;;;;;14.70;3.80;;;8.40;99.90;;;;;;5069433;28;20113;-80
2021/12/18 15:20:07;;;;;;;15.07;4.13;;;8.40;99.90;;;;;;5065117;28;20086;-81
2021/12/18 15:22:33;;;;;;;8.85;3.03;;;8.40;99.90;;;;;;5065406;28;20036;-80
2021/12/18 15:25:01;;;;;;;9.68;3.58;;;8.80;99.90;;;;;;5088765;28;20048;-81
2021/12/18 15:27:27;;;;;;;10.50;3.33;;;8.30;99.90;;;;;;5073040;28;20040;-82